Terminal Aerodrome Forecast
Issued by NWS Burlington, VT

Current Version | Previous Version | Text Only | Print | Product List | Glossary On
Versions: 1 2 3 4 5 6 7 8 9 10 11 12 13 14 15 16 17 18 19
000 FTUS41 KBTV 011700 TAFBTV TAF KBTV 011723Z 0118/0218 19009G15KT P6SM VCSH FEW035 SCT070 FM012300 17006KT P6SM SCT180 FM021200 18008KT P6SM SCT050 BKN150=

USA.gov is the U.S. government's official web portal to all federal, state and local government web resources and services.